sensor_id;sensor_type;location;lat;lon;timestamp;P1;durP1;ratioP1;P2;durP2;ratioP2
37311;SDS011;23197;53.912;9.138;2022-10-16T00:01:32;9.90;;;5.50;;
37311;SDS011;23197;53.912;9.138;2022-10-16T00:03:58;12.27;;;6.05;;
37311;SDS011;23197;53.912;9.138;2022-10-16T00:06:25;10.00;;;5.32;;
37311;SDS011;23197;53.912;9.138;2022-10-16T00:08:52;9.82;;;5.30;;
37311;SDS011;23197;53.912;9.138;2022-10-16T00:11:26;9.50;;;5.20;;
37311;SDS011;23197;53.912;9.138;2022-10-16T00:13:58;11.00;;;5.70;;
37311;SDS011;23197;53.912;9.138;2022-10-16T00:16:25;13.80;;;6.22;;
37311;SDS011;23197;53.912;9.138;2022-10-16T00:18:51;12.13;;;5.50;;
37311;SDS011;23197;53.912;9.138;2022-10-16T00:21:18;11.20;;;5.43;;
37311;SDS011;23197;53.912;9.138;2022-10-16T00:23:45;11.60;;;5.63;;
37311;SDS011;23197;53.912;9.138;2022-10-16T00:26:13;10.05;;;5.55;;
37311;SDS011;23197;53.912;9.138;2022-10-16T00:28:40;11.63;;;5.78;;
37311;SDS011;23197;53.912;9.138;2022-10-16T00:31:06;12.60;;;6.00;;
37311;SDS011;23197;53.912;9.138;2022-10-16T00:33:34;12.65;;;4.90;;
37311;SDS011;23197;53.912;9.138;2022-10-16T00:36:00;12.05;;;5.38;;
37311;SDS011;23197;53.912;9.138;2022-10-16T00:38:26;9.27;;;5.78;;
37311;SDS011;23197;53.912;9.138;2022-10-16T00:40:52;11.07;;;5.60;;
37311;SDS011;23197;53.912;9.138;2022-10-16T00:48:50;11.80;;;5.38;;
37311;SDS011;23197;53.912;9.138;2022-10-16T00:51:23;12.25;;;5.35;;
37311;SDS011;23197;53.912;9.138;2022-10-16T00:53:53;9.25;;;5.20;;
37311;SDS011;23197;53.912;9.138;2022-10-16T00:56:20;11.18;;;5.25;;
37311;SDS011;23197;53.912;9.138;2022-10-16T00:58:45;12.45;;;5.60;;
37311;SDS011;23197;53.912;9.138;2022-10-16T01:01:11;11.38;;;5.60;;
37311;SDS011;23197;53.912;9.138;2022-10-16T01:03:37;11.00;;;5.43;;
37311;SDS011;23197;53.912;9.138;2022-10-16T01:09:14;12.18;;;5.47;;
37311;SDS011;23197;53.912;9.138;2022-10-16T01:11:49;8.60;;;5.03;;
37311;SDS011;23197;53.912;9.138;2022-10-16T01:14:22;13.23;;;4.93;;
37311;SDS011;23197;53.912;9.138;2022-10-16T01:17:04;10.52;;;5.50;;
37311;SDS011;23197;53.912;9.138;2022-10-16T01:19:50;9.18;;;4.70;;
37311;SDS011;23197;53.912;9.138;2022-10-16T01:22:29;8.13;;;4.60;;
37311;SDS011;23197;53.912;9.138;2022-10-16T01:25:03;9.45;;;4.68;;
37311;SDS011;23197;53.912;9.138;2022-10-16T01:27:35;11.82;;;4.93;;
37311;SDS011;23197;53.912;9.138;2022-10-16T01:30:07;8.32;;;4.47;;
37311;SDS011;23197;53.912;9.138;2022-10-16T01:35:33;11.63;;;4.40;;
37311;SDS011;23197;53.912;9.138;2022-10-16T01:38:03;8.05;;;4.18;;
37311;SDS011;23197;53.912;9.138;2022-10-16T01:40:36;6.88;;;4.00;;
37311;SDS011;23197;53.912;9.138;2022-10-16T01:43:05;9.20;;;4.35;;
37311;SDS011;23197;53.912;9.138;2022-10-16T01:45:37;9.55;;;4.32;;
37311;SDS011;23197;53.912;9.138;2022-10-16T01:48:03;8.95;;;4.30;;
37311;SDS011;23197;53.912;9.138;2022-10-16T01:50:33;7.70;;;3.90;;
37311;SDS011;23197;53.912;9.138;2022-10-16T01:53:02;9.27;;;4.30;;
37311;SDS011;23197;53.912;9.138;2022-10-16T01:55:30;12.77;;;4.10;;
37311;SDS011;23197;53.912;9.138;2022-10-16T01:57:59;8.15;;;4.20;;
37311;SDS011;23197;53.912;9.138;2022-10-16T02:00:27;8.85;;;4.47;;
37311;SDS011;23197;53.912;9.138;2022-10-16T02:02:54;7.45;;;3.70;;
37311;SDS011;23197;53.912;9.138;2022-10-16T02:05:30;8.63;;;4.15;;
37311;SDS011;23197;53.912;9.138;2022-10-16T02:07:59;10.05;;;4.50;;
37311;SDS011;23197;53.912;9.138;2022-10-16T02:10:24;8.63;;;3.75;;
37311;SDS011;23197;53.912;9.138;2022-10-16T02:12:54;6.57;;;3.63;;
37311;SDS011;23197;53.912;9.138;2022-10-16T02:15:23;8.07;;;3.22;;
37311;SDS011;23197;53.912;9.138;2022-10-16T02:17:48;8.05;;;3.83;;
37311;SDS011;23197;53.912;9.138;2022-10-16T02:20:17;7.80;;;3.55;;
37311;SDS011;23197;53.912;9.138;2022-10-16T02:22:48;5.22;;;3.22;;
37311;SDS011;23197;53.912;9.138;2022-10-16T02:25:20;7.55;;;3.47;;
37311;SDS011;23197;53.912;9.138;2022-10-16T02:28:00;8.40;;;3.53;;
37311;SDS011;23197;53.912;9.138;2022-10-16T02:31:05;9.18;;;3.45;;
37311;SDS011;23197;53.912;9.138;2022-10-16T02:33:26;7.15;;;3.75;;
37311;SDS011;23197;53.912;9.138;2022-10-16T02:35:54;11.43;;;3.63;;
37311;SDS011;23197;53.912;9.138;2022-10-16T02:38:21;11.80;;;3.30;;
37311;SDS011;23197;53.912;9.138;2022-10-16T02:40:47;6.78;;;2.50;;
37311;SDS011;23197;53.912;9.138;2022-10-16T02:43:13;6.05;;;2.88;;
37311;SDS011;23197;53.912;9.138;2022-10-16T02:45:39;7.85;;;2.97;;
37311;SDS011;23197;53.912;9.138;2022-10-16T02:48:05;5.93;;;2.85;;
37311;SDS011;23197;53.912;9.138;2022-10-16T02:50:34;7.00;;;2.92;;
37311;SDS011;23197;53.912;9.138;2022-10-16T02:53:20;7.97;;;3.10;;
37311;SDS011;23197;53.912;9.138;2022-10-16T02:55:46;6.77;;;3.00;;
37311;SDS011;23197;53.912;9.138;2022-10-16T02:58:11;5.20;;;2.50;;
37311;SDS011;23197;53.912;9.138;2022-10-16T03:00:36;5.80;;;2.40;;
37311;SDS011;23197;53.912;9.138;2022-10-16T03:03:02;4.50;;;2.38;;
37311;SDS011;23197;53.912;9.138;2022-10-16T03:05:27;5.78;;;2.78;;
37311;SDS011;23197;53.912;9.138;2022-10-16T03:07:53;6.05;;;2.65;;
37311;SDS011;23197;53.912;9.138;2022-10-16T03:10:18;6.82;;;2.42;;
37311;SDS011;23197;53.912;9.138;2022-10-16T03:12:44;7.80;;;2.60;;
37311;SDS011;23197;53.912;9.138;2022-10-16T03:15:09;9.80;;;2.10;;
37311;SDS011;23197;53.912;9.138;2022-10-16T03:17:35;7.28;;;2.47;;
37311;SDS011;23197;53.912;9.138;2022-10-16T03:20:00;6.72;;;2.78;;
37311;SDS011;23197;53.912;9.138;2022-10-16T03:22:26;7.50;;;2.42;;
37311;SDS011;23197;53.912;9.138;2022-10-16T03:24:51;5.50;;;2.30;;
37311;SDS011;23197;53.912;9.138;2022-10-16T03:27:17;7.00;;;2.03;;
37311;SDS011;23197;53.912;9.138;2022-10-16T03:29:42;5.50;;;2.33;;
37311;SDS011;23197;53.912;9.138;2022-10-16T03:32:08;4.75;;;2.22;;
37311;SDS011;23197;53.912;9.138;2022-10-16T03:34:33;6.90;;;2.40;;
37311;SDS011;23197;53.912;9.138;2022-10-16T03:36:59;8.07;;;2.55;;
37311;SDS011;23197;53.912;9.138;2022-10-16T03:39:24;7.63;;;2.20;;
37311;SDS011;23197;53.912;9.138;2022-10-16T03:41:49;6.13;;;1.92;;
37311;SDS011;23197;53.912;9.138;2022-10-16T03:44:15;6.32;;;2.20;;
37311;SDS011;23197;53.912;9.138;2022-10-16T03:46:40;5.82;;;2.20;;
37311;SDS011;23197;53.912;9.138;2022-10-16T03:49:06;5.03;;;2.40;;
37311;SDS011;23197;53.912;9.138;2022-10-16T03:51:31;5.63;;;2.13;;
37311;SDS011;23197;53.912;9.138;2022-10-16T03:53:56;6.22;;;2.10;;
37311;SDS011;23197;53.912;9.138;2022-10-16T03:56:22;4.93;;;1.95;;
37311;SDS011;23197;53.912;9.138;2022-10-16T03:58:47;4.72;;;1.80;;
37311;SDS011;23197;53.912;9.138;2022-10-16T04:01:13;6.30;;;2.10;;
37311;SDS011;23197;53.912;9.138;2022-10-16T04:03:38;6.00;;;2.05;;
37311;SDS011;23197;53.912;9.138;2022-10-16T04:06:04;6.13;;;2.28;;
37311;SDS011;23197;53.912;9.138;2022-10-16T04:08:30;6.45;;;1.98;;
37311;SDS011;23197;53.912;9.138;2022-10-16T04:10:55;5.32;;;2.10;;
37311;SDS011;23197;53.912;9.138;2022-10-16T04:13:20;4.72;;;2.20;;
37311;SDS011;23197;53.912;9.138;2022-10-16T04:15:46;4.75;;;2.00;;
37311;SDS011;23197;53.912;9.138;2022-10-16T04:18:12;4.93;;;2.13;;
37311;SDS011;23197;53.912;9.138;2022-10-16T04:20:37;5.90;;;2.17;;
37311;SDS011;23197;53.912;9.138;2022-10-16T04:23:03;6.68;;;2.25;;
37311;SDS011;23197;53.912;9.138;2022-10-16T04:25:29;5.38;;;2.75;;
37311;SDS011;23197;53.912;9.138;2022-10-16T04:27:55;5.70;;;2.25;;
37311;SDS011;23197;53.912;9.138;2022-10-16T04:30:21;9.27;;;3.10;;
37311;SDS011;23197;53.912;9.138;2022-10-16T04:32:50;9.13;;;3.17;;
37311;SDS011;23197;53.912;9.138;2022-10-16T04:35:17;6.10;;;2.45;;
37311;SDS011;23197;53.912;9.138;2022-10-16T04:37:43;6.70;;;2.40;;
37311;SDS011;23197;53.912;9.138;2022-10-16T04:40:09;5.60;;;1.88;;
37311;SDS011;23197;53.912;9.138;2022-10-16T04:42:34;5.50;;;1.80;;
37311;SDS011;23197;53.912;9.138;2022-10-16T04:45:00;6.28;;;2.30;;
37311;SDS011;23197;53.912;9.138;2022-10-16T04:47:25;7.20;;;1.85;;
37311;SDS011;23197;53.912;9.138;2022-10-16T04:49:51;5.70;;;1.83;;
37311;SDS011;23197;53.912;9.138;2022-10-16T04:52:16;5.35;;;2.00;;
37311;SDS011;23197;53.912;9.138;2022-10-16T04:54:42;4.20;;;1.70;;
37311;SDS011;23197;53.912;9.138;2022-10-16T04:57:10;6.03;;;2.00;;
37311;SDS011;23197;53.912;9.138;2022-10-16T04:59:35;5.03;;;1.50;;
37311;SDS011;23197;53.912;9.138;2022-10-16T05:02:01;6.18;;;2.03;;
37311;SDS011;23197;53.912;9.138;2022-10-16T05:04:26;3.85;;;2.08;;
37311;SDS011;23197;53.912;9.138;2022-10-16T05:06:51;4.97;;;1.60;;
37311;SDS011;23197;53.912;9.138;2022-10-16T05:09:17;3.85;;;1.85;;
37311;SDS011;23197;53.912;9.138;2022-10-16T05:11:42;4.53;;;1.60;;
37311;SDS011;23197;53.912;9.138;2022-10-16T05:14:08;6.15;;;1.75;;
37311;SDS011;23197;53.912;9.138;2022-10-16T05:16:33;3.83;;;1.80;;
37311;SDS011;23197;53.912;9.138;2022-10-16T05:18:59;4.28;;;1.60;;
37311;SDS011;23197;53.912;9.138;2022-10-16T05:21:24;6.18;;;1.65;;
37311;SDS011;23197;53.912;9.138;2022-10-16T05:23:50;6.60;;;1.95;;
37311;SDS011;23197;53.912;9.138;2022-10-16T05:26:15;6.25;;;1.80;;
37311;SDS011;23197;53.912;9.138;2022-10-16T05:28:41;6.13;;;1.60;;
37311;SDS011;23197;53.912;9.138;2022-10-16T05:31:07;4.20;;;1.60;;
37311;SDS011;23197;53.912;9.138;2022-10-16T05:33:33;5.15;;;1.80;;
37311;SDS011;23197;53.912;9.138;2022-10-16T05:36:02;5.28;;;1.95;;
37311;SDS011;23197;53.912;9.138;2022-10-16T05:38:29;5.85;;;1.77;;
37311;SDS011;23197;53.912;9.138;2022-10-16T05:40:54;4.15;;;1.60;;
37311;SDS011;23197;53.912;9.138;2022-10-16T05:43:21;4.05;;;1.75;;
37311;SDS011;23197;53.912;9.138;2022-10-16T05:48:22;5.90;;;1.80;;
37311;SDS011;23197;53.912;9.138;2022-10-16T05:50:48;3.47;;;1.63;;
37311;SDS011;23197;53.912;9.138;2022-10-16T05:53:13;4.20;;;1.70;;
37311;SDS011;23197;53.912;9.138;2022-10-16T05:55:38;4.43;;;1.70;;
37311;SDS011;23197;53.912;9.138;2022-10-16T05:58:04;4.68;;;1.77;;
37311;SDS011;23197;53.912;9.138;2022-10-16T06:00:29;4.80;;;2.10;;
37311;SDS011;23197;53.912;9.138;2022-10-16T06:02:55;4.38;;;1.65;;
37311;SDS011;23197;53.912;9.138;2022-10-16T06:05:20;4.07;;;1.65;;
37311;SDS011;23197;53.912;9.138;2022-10-16T06:07:45;3.10;;;1.58;;
37311;SDS011;23197;53.912;9.138;2022-10-16T06:10:11;5.00;;;2.00;;
37311;SDS011;23197;53.912;9.138;2022-10-16T06:12:36;4.28;;;1.90;;
37311;SDS011;23197;53.912;9.138;2022-10-16T06:15:02;5.53;;;2.00;;
37311;SDS011;23197;53.912;9.138;2022-10-16T06:17:27;4.82;;;2.22;;
37311;SDS011;23197;53.912;9.138;2022-10-16T06:19:53;5.53;;;2.63;;
37311;SDS011;23197;53.912;9.138;2022-10-16T06:22:18;5.05;;;2.20;;
37311;SDS011;23197;53.912;9.138;2022-10-16T06:24:43;4.97;;;1.92;;
37311;SDS011;23197;53.912;9.138;2022-10-16T06:27:09;9.43;;;2.78;;
37311;SDS011;23197;53.912;9.138;2022-10-16T06:29:34;5.50;;;2.63;;
37311;SDS011;23197;53.912;9.138;2022-10-16T06:32:00;6.53;;;2.58;;
37311;SDS011;23197;53.912;9.138;2022-10-16T06:34:27;7.07;;;2.50;;
37311;SDS011;23197;53.912;9.138;2022-10-16T06:36:55;5.15;;;2.45;;
37311;SDS011;23197;53.912;9.138;2022-10-16T06:39:20;7.70;;;2.85;;
37311;SDS011;23197;53.912;9.138;2022-10-16T06:41:46;7.03;;;2.83;;
37311;SDS011;23197;53.912;9.138;2022-10-16T06:44:14;5.97;;;2.78;;
37311;SDS011;23197;53.912;9.138;2022-10-16T06:46:40;7.32;;;2.95;;
37311;SDS011;23197;53.912;9.138;2022-10-16T06:49:05;6.32;;;2.83;;
37311;SDS011;23197;53.912;9.138;2022-10-16T06:51:31;5.70;;;3.00;;
37311;SDS011;23197;53.912;9.138;2022-10-16T06:53:59;8.00;;;3.00;;
37311;SDS011;23197;53.912;9.138;2022-10-16T06:56:25;6.85;;;2.80;;
37311;SDS011;23197;53.912;9.138;2022-10-16T06:58:53;7.82;;;3.47;;
37311;SDS011;23197;53.912;9.138;2022-10-16T07:01:20;5.95;;;2.67;;
37311;SDS011;23197;53.912;9.138;2022-10-16T07:03:47;8.00;;;3.60;;
37311;SDS011;23197;53.912;9.138;2022-10-16T07:06:13;8.85;;;3.72;;
37311;SDS011;23197;53.912;9.138;2022-10-16T07:08:42;8.50;;;3.60;;
37311;SDS011;23197;53.912;9.138;2022-10-16T07:11:10;7.32;;;3.17;;
37311;SDS011;23197;53.912;9.138;2022-10-16T07:13:37;8.50;;;3.42;;
37311;SDS011;23197;53.912;9.138;2022-10-16T07:16:08;7.45;;;3.42;;
37311;SDS011;23197;53.912;9.138;2022-10-16T07:18:38;7.97;;;3.60;;
37311;SDS011;23197;53.912;9.138;2022-10-16T07:21:12;6.38;;;3.50;;
37311;SDS011;23197;53.912;9.138;2022-10-16T07:23:39;5.85;;;3.22;;
37311;SDS011;23197;53.912;9.138;2022-10-16T07:26:05;7.95;;;4.03;;
37311;SDS011;23197;53.912;9.138;2022-10-16T07:28:32;6.28;;;2.85;;
37311;SDS011;23197;53.912;9.138;2022-10-16T07:31:04;6.68;;;3.65;;
37311;SDS011;23197;53.912;9.138;2022-10-16T07:33:32;7.93;;;3.53;;
37311;SDS011;23197;53.912;9.138;2022-10-16T07:35:59;10.18;;;4.05;;
37311;SDS011;23197;53.912;9.138;2022-10-16T07:38:24;7.45;;;3.20;;
37311;SDS011;23197;53.912;9.138;2022-10-16T07:41:00;7.20;;;3.58;;
37311;SDS011;23197;53.912;9.138;2022-10-16T07:43:27;7.50;;;3.72;;
37311;SDS011;23197;53.912;9.138;2022-10-16T07:45:53;6.90;;;4.00;;
37311;SDS011;23197;53.912;9.138;2022-10-16T07:48:20;8.43;;;4.10;;
37311;SDS011;23197;53.912;9.138;2022-10-16T07:50:46;8.95;;;4.20;;
37311;SDS011;23197;53.912;9.138;2022-10-16T07:53:12;8.15;;;3.92;;
37311;SDS011;23197;53.912;9.138;2022-10-16T07:55:39;6.80;;;3.83;;
37311;SDS011;23197;53.912;9.138;2022-10-16T07:58:05;6.45;;;3.50;;
37311;SDS011;23197;53.912;9.138;2022-10-16T08:00:30;6.93;;;3.75;;
37311;SDS011;23197;53.912;9.138;2022-10-16T08:02:56;7.97;;;3.92;;
37311;SDS011;23197;53.912;9.138;2022-10-16T08:05:26;6.10;;;3.90;;
37311;SDS011;23197;53.912;9.138;2022-10-16T08:07:53;7.22;;;3.40;;
37311;SDS011;23197;53.912;9.138;2022-10-16T08:10:19;8.65;;;3.60;;
37311;SDS011;23197;53.912;9.138;2022-10-16T08:12:46;7.18;;;3.30;;
37311;SDS011;23197;53.912;9.138;2022-10-16T08:15:11;12.02;;;4.07;;
37311;SDS011;23197;53.912;9.138;2022-10-16T08:17:37;9.23;;;3.40;;
37311;SDS011;23197;53.912;9.138;2022-10-16T08:20:03;5.45;;;3.00;;
37311;SDS011;23197;53.912;9.138;2022-10-16T08:22:29;7.25;;;3.10;;
37311;SDS011;23197;53.912;9.138;2022-10-16T08:24:55;7.95;;;3.40;;
37311;SDS011;23197;53.912;9.138;2022-10-16T08:27:20;6.53;;;3.22;;
37311;SDS011;23197;53.912;9.138;2022-10-16T08:29:45;6.82;;;3.15;;
37311;SDS011;23197;53.912;9.138;2022-10-16T08:32:11;5.13;;;3.40;;
37311;SDS011;23197;53.912;9.138;2022-10-16T08:34:36;5.18;;;2.80;;
37311;SDS011;23197;53.912;9.138;2022-10-16T08:37:02;6.43;;;3.42;;
37311;SDS011;23197;53.912;9.138;2022-10-16T08:39:27;5.38;;;3.20;;
37311;SDS011;23197;53.912;9.138;2022-10-16T08:42:08;6.32;;;2.63;;
37311;SDS011;23197;53.912;9.138;2022-10-16T08:47:22;6.03;;;2.90;;
37311;SDS011;23197;53.912;9.138;2022-10-16T08:50:02;7.00;;;3.10;;
37311;SDS011;23197;53.912;9.138;2022-10-16T08:52:35;7.95;;;3.28;;
37311;SDS011;23197;53.912;9.138;2022-10-16T08:55:05;5.82;;;2.95;;
37311;SDS011;23197;53.912;9.138;2022-10-16T08:57:31;6.93;;;2.97;;
37311;SDS011;23197;53.912;9.138;2022-10-16T08:59:59;5.05;;;2.90;;
37311;SDS011;23197;53.912;9.138;2022-10-16T09:05:31;6.50;;;3.30;;
37311;SDS011;23197;53.912;9.138;2022-10-16T09:13:27;7.50;;;2.92;;
37311;SDS011;23197;53.912;9.138;2022-10-16T09:16:07;7.25;;;3.22;;
37311;SDS011;23197;53.912;9.138;2022-10-16T09:18:39;7.70;;;3.08;;
37311;SDS011;23197;53.912;9.138;2022-10-16T09:21:16;7.13;;;3.10;;
37311;SDS011;23197;53.912;9.138;2022-10-16T09:23:46;5.10;;;2.58;;
37311;SDS011;23197;53.912;9.138;2022-10-16T09:26:13;5.82;;;2.63;;
37311;SDS011;23197;53.912;9.138;2022-10-16T09:28:40;6.82;;;3.30;;
37311;SDS011;23197;53.912;9.138;2022-10-16T09:31:09;7.63;;;3.40;;
37311;SDS011;23197;53.912;9.138;2022-10-16T09:33:44;7.05;;;2.78;;
37311;SDS011;23197;53.912;9.138;2022-10-16T09:36:13;6.32;;;2.78;;
37311;SDS011;23197;53.912;9.138;2022-10-16T09:38:39;7.55;;;3.00;;
37311;SDS011;23197;53.912;9.138;2022-10-16T09:41:13;6.28;;;3.28;;
37311;SDS011;23197;53.912;9.138;2022-10-16T09:43:54;6.88;;;2.58;;
37311;SDS011;23197;53.912;9.138;2022-10-16T09:48:56;6.15;;;2.45;;
37311;SDS011;23197;53.912;9.138;2022-10-16T09:53:59;10.00;;;3.15;;
37311;SDS011;23197;53.912;9.138;2022-10-16T09:56:30;5.82;;;2.03;;
37311;SDS011;23197;53.912;9.138;2022-10-16T09:58:59;6.47;;;2.60;;
37311;SDS011;23197;53.912;9.138;2022-10-16T10:01:28;3.88;;;1.98;;
37311;SDS011;23197;53.912;9.138;2022-10-16T10:04:00;7.25;;;2.00;;
37311;SDS011;23197;53.912;9.138;2022-10-16T10:06:34;4.68;;;1.85;;
37311;SDS011;23197;53.912;9.138;2022-10-16T10:11:46;4.18;;;1.65;;
37311;SDS011;23197;53.912;9.138;2022-10-16T10:14:30;4.50;;;1.73;;
37311;SDS011;23197;53.912;9.138;2022-10-16T10:19:39;5.65;;;1.95;;
37311;SDS011;23197;53.912;9.138;2022-10-16T10:22:24;5.47;;;1.83;;
37311;SDS011;23197;53.912;9.138;2022-10-16T10:38:20;4.03;;;1.27;;
37311;SDS011;23197;53.912;9.138;2022-10-16T10:54:26;4.88;;;1.30;;
37311;SDS011;23197;53.912;9.138;2022-10-16T10:57:09;5.15;;;1.30;;
37311;SDS011;23197;53.912;9.138;2022-10-16T11:05:24;4.30;;;1.38;;
37311;SDS011;23197;53.912;9.138;2022-10-16T11:07:57;4.53;;;1.20;;
37311;SDS011;23197;53.912;9.138;2022-10-16T11:10:28;5.07;;;1.20;;
37311;SDS011;23197;53.912;9.138;2022-10-16T11:16:03;4.35;;;1.30;;
37311;SDS011;23197;53.912;9.138;2022-10-16T11:18:42;5.97;;;1.60;;
37311;SDS011;23197;53.912;9.138;2022-10-16T11:21:14;5.22;;;1.40;;
37311;SDS011;23197;53.912;9.138;2022-10-16T11:26:16;4.13;;;1.20;;
37311;SDS011;23197;53.912;9.138;2022-10-16T11:28:50;5.10;;;1.55;;
37311;SDS011;23197;53.912;9.138;2022-10-16T11:34:12;5.45;;;1.30;;
37311;SDS011;23197;53.912;9.138;2022-10-16T11:36:44;6.18;;;1.38;;
37311;SDS011;23197;53.912;9.138;2022-10-16T11:39:21;5.07;;;1.30;;
37311;SDS011;23197;53.912;9.138;2022-10-16T11:44:44;4.82;;;1.48;;
37311;SDS011;23197;53.912;9.138;2022-10-16T11:49:58;5.28;;;1.40;;
37311;SDS011;23197;53.912;9.138;2022-10-16T11:52:33;5.60;;;1.58;;
37311;SDS011;23197;53.912;9.138;2022-10-16T11:55:05;6.43;;;1.55;;
37311;SDS011;23197;53.912;9.138;2022-10-16T11:57:42;7.88;;;1.30;;
37311;SDS011;23197;53.912;9.138;2022-10-16T12:00:23;5.55;;;1.58;;
37311;SDS011;23197;53.912;9.138;2022-10-16T12:05:33;7.20;;;2.58;;
37311;SDS011;23197;53.912;9.138;2022-10-16T12:08:15;5.78;;;1.63;;
37311;SDS011;23197;53.912;9.138;2022-10-16T12:10:45;6.95;;;1.75;;
37311;SDS011;23197;53.912;9.138;2022-10-16T12:13:31;6.82;;;1.75;;
37311;SDS011;23197;53.912;9.138;2022-10-16T12:18:31;8.80;;;1.58;;
37311;SDS011;23197;53.912;9.138;2022-10-16T12:20:57;6.43;;;1.50;;
37311;SDS011;23197;53.912;9.138;2022-10-16T12:23:24;6.38;;;1.90;;
37311;SDS011;23197;53.912;9.138;2022-10-16T12:25:57;6.45;;;1.60;;
37311;SDS011;23197;53.912;9.138;2022-10-16T12:28:28;6.65;;;1.88;;
37311;SDS011;23197;53.912;9.138;2022-10-16T12:33:28;5.72;;;1.75;;
37311;SDS011;23197;53.912;9.138;2022-10-16T12:35:55;8.15;;;1.48;;
37311;SDS011;23197;53.912;9.138;2022-10-16T12:39:05;8.02;;;1.95;;
37311;SDS011;23197;53.912;9.138;2022-10-16T12:41:23;5.47;;;1.80;;
37311;SDS011;23197;53.912;9.138;2022-10-16T12:43:59;6.90;;;2.05;;
37311;SDS011;23197;53.912;9.138;2022-10-16T12:49:56;7.72;;;1.65;;
37311;SDS011;23197;53.912;9.138;2022-10-16T12:51:53;6.78;;;1.75;;
37311;SDS011;23197;53.912;9.138;2022-10-16T12:54:25;7.25;;;1.80;;
37311;SDS011;23197;53.912;9.138;2022-10-16T13:00:21;8.82;;;3.08;;
37311;SDS011;23197;53.912;9.138;2022-10-16T13:13:40;9.23;;;2.70;;
37311;SDS011;23197;53.912;9.138;2022-10-16T13:19:18;7.78;;;2.13;;
37311;SDS011;23197;53.912;9.138;2022-10-16T13:21:57;8.35;;;2.35;;
37311;SDS011;23197;53.912;9.138;2022-10-16T13:29:53;10.52;;;3.97;;
37311;SDS011;23197;53.912;9.138;2022-10-16T13:32:25;6.72;;;2.17;;
37311;SDS011;23197;53.912;9.138;2022-10-16T13:34:51;9.18;;;1.80;;
37311;SDS011;23197;53.912;9.138;2022-10-16T13:37:19;10.52;;;1.65;;
37311;SDS011;23197;53.912;9.138;2022-10-16T13:39:46;7.85;;;1.73;;
37311;SDS011;23197;53.912;9.138;2022-10-16T13:42:13;9.75;;;1.60;;
37311;SDS011;23197;53.912;9.138;2022-10-16T13:44:49;9.18;;;1.67;;
37311;SDS011;23197;53.912;9.138;2022-10-16T13:47:20;6.95;;;1.20;;
37311;SDS011;23197;53.912;9.138;2022-10-16T13:49:58;6.13;;;1.50;;
37311;SDS011;23197;53.912;9.138;2022-10-16T13:52:31;7.70;;;1.48;;
37311;SDS011;23197;53.912;9.138;2022-10-16T13:54:57;7.53;;;1.60;;
37311;SDS011;23197;53.912;9.138;2022-10-16T13:57:23;5.68;;;1.33;;
37311;SDS011;23197;53.912;9.138;2022-10-16T13:59:50;7.25;;;1.50;;
37311;SDS011;23197;53.912;9.138;2022-10-16T14:02:25;5.72;;;1.30;;
37311;SDS011;23197;53.912;9.138;2022-10-16T14:04:54;6.18;;;1.27;;
37311;SDS011;23197;53.912;9.138;2022-10-16T14:07:23;9.50;;;1.73;;
37311;SDS011;23197;53.912;9.138;2022-10-16T14:09:51;6.38;;;1.40;;
37311;SDS011;23197;53.912;9.138;2022-10-16T14:12:18;8.00;;;1.50;;
37311;SDS011;23197;53.912;9.138;2022-10-16T14:14:45;21.85;;;8.50;;
37311;SDS011;23197;53.912;9.138;2022-10-16T14:17:13;16.38;;;6.65;;
37311;SDS011;23197;53.912;9.138;2022-10-16T14:19:40;10.73;;;2.38;;
37311;SDS011;23197;53.912;9.138;2022-10-16T14:22:17;7.95;;;1.80;;
37311;SDS011;23197;53.912;9.138;2022-10-16T14:24:55;13.73;;;4.30;;
37311;SDS011;23197;53.912;9.138;2022-10-16T14:27:29;12.43;;;2.90;;
37311;SDS011;23197;53.912;9.138;2022-10-16T14:32:33;10.70;;;2.38;;
37311;SDS011;23197;53.912;9.138;2022-10-16T14:34:59;10.10;;;2.20;;
37311;SDS011;23197;53.912;9.138;2022-10-16T14:37:25;8.35;;;1.40;;
37311;SDS011;23197;53.912;9.138;2022-10-16T14:39:53;9.73;;;2.20;;
37311;SDS011;23197;53.912;9.138;2022-10-16T14:42:20;10.13;;;2.40;;
37311;SDS011;23197;53.912;9.138;2022-10-16T14:44:49;7.55;;;1.90;;
37311;SDS011;23197;53.912;9.138;2022-10-16T14:47:18;7.82;;;1.90;;
37311;SDS011;23197;53.912;9.138;2022-10-16T14:49:51;11.75;;;2.33;;
37311;SDS011;23197;53.912;9.138;2022-10-16T14:52:18;10.23;;;2.17;;
37311;SDS011;23197;53.912;9.138;2022-10-16T14:54:43;8.13;;;2.10;;
37311;SDS011;23197;53.912;9.138;2022-10-16T14:57:23;10.82;;;2.20;;
37311;SDS011;23197;53.912;9.138;2022-10-16T14:59:51;8.80;;;2.08;;
37311;SDS011;23197;53.912;9.138;2022-10-16T15:04:45;13.50;;;2.05;;
37311;SDS011;23197;53.912;9.138;2022-10-16T15:07:11;12.98;;;2.00;;
37311;SDS011;23197;53.912;9.138;2022-10-16T15:09:36;10.07;;;2.00;;
37311;SDS011;23197;53.912;9.138;2022-10-16T15:12:02;7.82;;;2.00;;
37311;SDS011;23197;53.912;9.138;2022-10-16T15:14:27;9.50;;;1.80;;
37311;SDS011;23197;53.912;9.138;2022-10-16T15:16:53;14.88;;;2.05;;
37311;SDS011;23197;53.912;9.138;2022-10-16T15:19:18;7.85;;;1.85;;
37311;SDS011;23197;53.912;9.138;2022-10-16T15:21:44;8.85;;;2.00;;
37311;SDS011;23197;53.912;9.138;2022-10-16T15:24:11;12.50;;;2.10;;
37311;SDS011;23197;53.912;9.138;2022-10-16T15:26:37;13.85;;;2.40;;
37311;SDS011;23197;53.912;9.138;2022-10-16T15:29:03;12.13;;;1.95;;
37311;SDS011;23197;53.912;9.138;2022-10-16T15:31:28;9.90;;;2.17;;
37311;SDS011;23197;53.912;9.138;2022-10-16T15:33:54;16.23;;;2.55;;
37311;SDS011;23197;53.912;9.138;2022-10-16T15:36:29;10.25;;;2.30;;
37311;SDS011;23197;53.912;9.138;2022-10-16T15:38:59;12.23;;;2.15;;
37311;SDS011;23197;53.912;9.138;2022-10-16T15:41:25;9.90;;;2.08;;
37311;SDS011;23197;53.912;9.138;2022-10-16T15:43:51;18.80;;;5.40;;
37311;SDS011;23197;53.912;9.138;2022-10-16T15:46:20;23.15;;;7.82;;
37311;SDS011;23197;53.912;9.138;2022-10-16T15:48:48;19.42;;;4.72;;
37311;SDS011;23197;53.912;9.138;2022-10-16T15:51:14;32.25;;;7.72;;
37311;SDS011;23197;53.912;9.138;2022-10-16T15:53:40;16.48;;;4.15;;
37311;SDS011;23197;53.912;9.138;2022-10-16T15:56:06;11.73;;;3.63;;
37311;SDS011;23197;53.912;9.138;2022-10-16T15:58:33;9.77;;;2.28;;
37311;SDS011;23197;53.912;9.138;2022-10-16T16:00:59;13.32;;;2.80;;
37311;SDS011;23197;53.912;9.138;2022-10-16T16:03:26;14.80;;;5.10;;
37311;SDS011;23197;53.912;9.138;2022-10-16T16:05:52;12.13;;;3.10;;
37311;SDS011;23197;53.912;9.138;2022-10-16T16:08:18;13.88;;;2.95;;
37311;SDS011;23197;53.912;9.138;2022-10-16T16:10:43;12.55;;;2.53;;
37311;SDS011;23197;53.912;9.138;2022-10-16T16:13:09;12.55;;;2.25;;
37311;SDS011;23197;53.912;9.138;2022-10-16T16:15:36;14.90;;;2.28;;
37311;SDS011;23197;53.912;9.138;2022-10-16T16:18:03;9.52;;;2.13;;
37311;SDS011;23197;53.912;9.138;2022-10-16T16:20:30;9.00;;;2.10;;
37311;SDS011;23197;53.912;9.138;2022-10-16T16:22:56;13.43;;;2.65;;
37311;SDS011;23197;53.912;9.138;2022-10-16T16:25:21;17.17;;;2.20;;
37311;SDS011;23197;53.912;9.138;2022-10-16T16:27:47;12.45;;;2.28;;
37311;SDS011;23197;53.912;9.138;2022-10-16T16:30:12;9.93;;;2.22;;
37311;SDS011;23197;53.912;9.138;2022-10-16T16:32:38;13.68;;;2.65;;
37311;SDS011;23197;53.912;9.138;2022-10-16T16:35:03;9.02;;;2.17;;
37311;SDS011;23197;53.912;9.138;2022-10-16T16:37:30;10.52;;;2.50;;
37311;SDS011;23197;53.912;9.138;2022-10-16T16:39:55;15.82;;;2.78;;
37311;SDS011;23197;53.912;9.138;2022-10-16T16:42:24;14.23;;;3.00;;
37311;SDS011;23197;53.912;9.138;2022-10-16T16:44:50;12.98;;;2.53;;
37311;SDS011;23197;53.912;9.138;2022-10-16T16:47:16;14.15;;;2.50;;
37311;SDS011;23197;53.912;9.138;2022-10-16T16:49:41;11.55;;;2.65;;
37311;SDS011;23197;53.912;9.138;2022-10-16T16:52:07;14.00;;;3.90;;
37311;SDS011;23197;53.912;9.138;2022-10-16T16:54:32;14.48;;;5.40;;